TimeEST,TemperatureF,Dew PointF,Humidity,Sea Level PressureIn,VisibilityMPH,Wind Direction,Wind SpeedMPH,Gust SpeedMPH,PrecipitationIn,Events,Conditions,WindDirDegrees,DateUTC
12:53 AM,8.6,3.2,79,-9999,70.0,WNW,44.9,-,N/A,,Overcast,300,2013-12-07 05:53:00
1:52 AM,8.6,8.6,100,-9999,0.0,WNW,44.9,-,N/A,Fog,Light Freezing Fog,300,2013-12-07 06:52:00
2:55 AM,6.8,6.8,100,-9999,0.1,WNW,36.8,47.2,N/A,Fog,Light Freezing Fog,300,2013-12-07 07:55:00
3:55 AM,10.4,-5.8,48,-9999,15.0,WNW,43.7,49.5,N/A,,Overcast,300,2013-12-07 08:55:00
4:54 AM,6.8,6.8,100,-9999,0.0,WNW,47.2,52.9,N/A,Fog-Snow,Light Snow Grains,300,2013-12-07 09:54:00
5:49 AM,6.8,6.8,100,-9999,0.0,WNW,47.2,56.4,N/A,Fog-Snow,Light Snow Grains,300,2013-12-07 10:49:00
6:51 AM,5.0,5.0,100,-9999,0.0,WNW,52.9,-,N/A,Fog-Snow,Light Snow,300,2013-12-07 11:51:00
7:54 AM,6.8,6.8,100,-9999,0.0,WNW,51.8,-,N/A,Fog-Snow,Light Snow,300,2013-12-07 12:54:00
8:54 AM,3.2,3.2,100,-9999,0.0,WNW,54.1,-,N/A,Fog-Snow,Light Snow,300,2013-12-07 13:54:00
9:59 AM,3.2,3.2,100,-9999,0.0,WNW,58.7,64.4,N/A,Fog-Snow,Light Snow,300,2013-12-07 14:59:00
10:53 AM,3.2,3.2,100,-9999,0.0,WNW,63.3,69.0,N/A,Fog-Snow,Light Snow,300,2013-12-07 15:53:00
11:53 AM,1.4,1.4,100,-9999,0.1,WNW,56.4,-,N/A,Fog-Snow,Light Snow,290,2013-12-07 16:53:00
12:52 PM,1.4,1.4,100,-9999,0.1,WNW,54.1,-,N/A,Fog-Snow,Light Snow,290,2013-12-07 17:52:00
1:55 PM,-0.4,-0.4,100,-9999,0.1,West,54.1,61.0,N/A,Fog-Snow,Light Snow,280,2013-12-07 18:55:00
2:53 PM,-0.4,-0.4,100,-9999,0.1,WNW,52.9,59.8,N/A,Fog,Light Freezing Fog,300,2013-12-07 19:53:00
3:54 PM,-0.4,-0.4,100,-9999,0.2,WNW,72.5,82.9,N/A,Fog,Light Freezing Fog,290,2013-12-07 20:54:00
4:55 PM,-0.4,-0.4,100,-9999,0.1,West,63.3,74.8,N/A,Fog,Light Freezing Fog,280,2013-12-07 21:55:00
5:53 PM,-0.4,-0.4,100,-9999,0.1,WNW,73.6,84.0,N/A,Fog,Light Freezing Fog,290,2013-12-07 22:53:00
6:49 PM,-2.2,-2.2,100,-9999,0.1,WNW,71.3,79.4,N/A,Fog,Light Freezing Fog,300,2013-12-07 23:49:00
7:51 PM,-2.2,-2.2,100,-9999,0.0,WNW,65.6,71.3,N/A,Fog,Light Freezing Fog,300,2013-12-08 00:51:00
8:51 PM,-2.2,-2.2,100,-9999,0.0,WNW,72.5,81.7,N/A,Fog,Light Freezing Fog,300,2013-12-08 01:51:00
9:56 PM,-2.2,-2.2,100,-9999,0.0,WNW,71.3,78.3,N/A,Fog,Light Freezing Fog,300,2013-12-08 02:56:00
10:55 PM,-4.0,-4.0,100,-9999,0.0,WNW,72.5,-,N/A,Fog,Light Freezing Fog,300,2013-12-08 03:55:00
11:56 PM,-4.0,-4.0,100,-9999,0.0,WNW,66.7,71.3,N/A,Fog,Light Freezing Fog,300,2013-12-08 04:56:00